createdAt,value
2023-02-16T00:01:02.354Z,2.80
2023-02-16T00:03:30.887Z,2.70
2023-02-16T00:05:59.267Z,2.60
2023-02-16T00:08:27.414Z,2.60
2023-02-16T00:11:13.215Z,2.70
2023-02-16T00:13:48.678Z,2.70
2023-02-16T00:16:20.022Z,2.70
2023-02-16T00:18:49.723Z,2.70
2023-02-16T00:21:18.727Z,2.70
2023-02-16T00:23:49.898Z,2.70
2023-02-16T00:26:20.255Z,2.60
2023-02-16T00:28:52.220Z,2.60
2023-02-16T00:31:27.496Z,2.70
2023-02-16T00:33:56.864Z,2.70
2023-02-16T00:36:25.924Z,2.70
2023-02-16T00:38:54.202Z,2.60
2023-02-16T00:41:44.875Z,2.50
2023-02-16T00:44:17.460Z,2.40
2023-02-16T00:46:48.356Z,2.20
2023-02-16T00:49:17.543Z,2.40
2023-02-16T00:51:45.853Z,2.30
2023-02-16T00:54:14.865Z,2.30
2023-02-16T00:56:43.863Z,2.40
2023-02-16T00:59:18.757Z,2.30
2023-02-16T01:01:49.875Z,2.40
2023-02-16T01:04:22.184Z,2.30
2023-02-16T01:07:08.115Z,2.30
2023-02-16T01:09:54.059Z,2.40
2023-02-16T01:12:23.405Z,2.40
2023-02-16T01:14:54.327Z,2.40
2023-02-16T01:17:25.952Z,2.30
2023-02-16T01:19:56.863Z,2.30
2023-02-16T01:22:25.091Z,2.20
2023-02-16T01:24:53.262Z,2.20
2023-02-16T01:27:21.464Z,2.00
2023-02-16T01:29:49.800Z,2.20
2023-02-16T01:32:18.137Z,2.20
2023-02-16T01:34:47.942Z,2.40
2023-02-16T01:37:17.232Z,2.30
2023-02-16T01:39:45.652Z,2.30
2023-02-16T01:42:33.425Z,2.30
2023-02-16T01:45:05.182Z,2.10
2023-02-16T01:47:40.551Z,2.20
2023-02-16T01:50:27.205Z,2.10
2023-02-16T01:53:03.661Z,2.10
2023-02-16T01:55:36.683Z,2.10
2023-02-16T01:58:11.867Z,2.10
2023-02-16T02:01:15.792Z,2.20
2023-02-16T02:04:01.557Z,2.10
2023-02-16T02:06:35.665Z,2.10
2023-02-16T02:09:11.234Z,2.20
2023-02-16T02:11:45.017Z,2.20
2023-02-16T02:14:20.369Z,2.20
2023-02-16T02:16:56.356Z,2.10
2023-02-16T02:19:24.704Z,2.00
2023-02-16T02:22:32.105Z,2.10
2023-02-16T02:25:42.242Z,2.00
2023-02-16T02:28:17.384Z,2.00
2023-02-16T02:30:54.804Z,1.90
2023-02-16T02:33:37.171Z,1.90
2023-02-16T02:36:19.967Z,1.80
2023-02-16T02:39:01.072Z,1.80
2023-02-16T02:41:50.477Z,1.90
2023-02-16T02:44:24.138Z,1.80
2023-02-16T02:46:52.785Z,1.80
2023-02-16T02:49:21.620Z,1.80
2023-02-16T02:51:50.656Z,1.80
2023-02-16T02:54:39.501Z,1.70
2023-02-16T02:57:33.116Z,1.70
2023-02-16T03:00:26.319Z,1.80
2023-02-16T03:03:01.363Z,1.70
2023-02-16T03:05:30.439Z,1.80
2023-02-16T03:08:06.540Z,1.70
2023-02-16T03:10:55.352Z,1.80
2023-02-16T03:13:37.983Z,1.80
2023-02-16T03:16:14.170Z,1.80
2023-02-16T03:19:01.599Z,1.80
2023-02-16T03:21:47.765Z,1.70
2023-02-16T03:24:41.039Z,1.80
2023-02-16T03:27:31.023Z,1.70
2023-02-16T03:30:01.113Z,1.70
2023-02-16T03:32:30.693Z,1.80
2023-02-16T03:34:59.030Z,1.80
2023-02-16T03:37:27.401Z,1.70
2023-02-16T03:40:13.500Z,1.70
2023-02-16T03:42:48.848Z,1.70
2023-02-16T03:45:17.249Z,1.60
2023-02-16T03:47:46.825Z,1.60
2023-02-16T03:50:15.322Z,1.70
2023-02-16T03:52:43.593Z,1.70
2023-02-16T03:55:14.317Z,1.80
2023-02-16T03:57:42.467Z,1.60
2023-02-16T04:00:12.078Z,1.60
2023-02-16T04:02:46.042Z,1.60
2023-02-16T04:05:14.172Z,1.70
2023-02-16T04:07:42.337Z,1.70
2023-02-16T04:10:10.725Z,1.60
2023-02-16T04:12:37.908Z,1.60
2023-02-16T04:15:11.015Z,1.70
2023-02-16T04:17:39.183Z,1.50
2023-02-16T04:20:11.912Z,1.60
2023-02-16T04:22:39.951Z,1.70
2023-02-16T04:25:08.596Z,1.60
2023-02-16T04:27:37.481Z,1.60
2023-02-16T04:30:07.803Z,1.70
2023-02-16T04:32:36.105Z,1.60
2023-02-16T04:35:04.368Z,1.60
2023-02-16T04:37:34.380Z,1.60
2023-02-16T04:40:02.705Z,1.60
2023-02-16T04:42:30.913Z,1.60
2023-02-16T04:44:59.050Z,1.50
2023-02-16T04:47:28.566Z,1.50
2023-02-16T04:49:56.671Z,1.50
2023-02-16T04:52:24.763Z,1.40
2023-02-16T04:54:54.387Z,1.40
2023-02-16T04:57:24.178Z,1.30
2023-02-16T04:59:52.489Z,1.30
2023-02-16T05:02:20.733Z,1.30
2023-02-16T05:04:49.127Z,1.30
2023-02-16T05:07:17.559Z,1.30
2023-02-16T05:09:46.090Z,1.20
2023-02-16T05:12:32.774Z,1.20
2023-02-16T05:15:00.983Z,1.20
2023-02-16T05:17:29.725Z,1.20
2023-02-16T05:20:00.347Z,1.30
2023-02-16T05:22:32.443Z,1.30
2023-02-16T05:25:00.594Z,1.20
2023-02-16T05:27:31.590Z,1.20
2023-02-16T05:29:59.894Z,1.20
2023-02-16T05:32:28.124Z,1.20
2023-02-16T05:34:56.337Z,1.20
2023-02-16T05:37:24.467Z,1.20
2023-02-16T05:39:53.829Z,1.20
2023-02-16T05:42:22.122Z,1.20
2023-02-16T05:44:51.624Z,1.20
2023-02-16T05:47:19.917Z,1.20
2023-02-16T05:49:48.158Z,1.20
2023-02-16T05:52:16.694Z,1.20
2023-02-16T05:54:44.828Z,1.20
2023-02-16T05:57:13.102Z,1.10
2023-02-16T05:59:41.274Z,1.10
2023-02-16T06:02:10.902Z,1.10
2023-02-16T06:04:39.085Z,1.00
2023-02-16T06:07:07.333Z,1.00
2023-02-16T06:09:35.919Z,1.00
2023-02-16T06:12:04.202Z,1.00
2023-02-16T06:14:33.015Z,0.90
2023-02-16T06:17:03.667Z,0.90
2023-02-16T06:19:33.394Z,1.00
2023-02-16T06:22:01.549Z,1.00
2023-02-16T06:24:29.949Z,1.00
2023-02-16T06:26:58.057Z,1.00
2023-02-16T06:29:26.538Z,1.10
2023-02-16T06:31:54.888Z,1.10
2023-02-16T06:34:23.232Z,1.10
2023-02-16T06:36:52.808Z,1.10
2023-02-16T06:39:21.350Z,1.10
2023-02-16T06:41:49.630Z,1.20
2023-02-16T06:44:18.406Z,1.10
2023-02-16T06:46:49.086Z,1.20
2023-02-16T06:49:19.446Z,1.30
2023-02-16T06:51:48.549Z,1.20
2023-02-16T06:54:19.059Z,1.30
2023-02-16T06:56:47.392Z,1.40
2023-02-16T06:59:17.969Z,1.40
2023-02-16T07:01:46.229Z,1.50
2023-02-16T07:04:15.125Z,1.70
2023-02-16T07:06:43.391Z,1.90
2023-02-16T07:09:12.888Z,2.10
2023-02-16T07:11:42.561Z,2.30
2023-02-16T07:14:10.997Z,2.30
2023-02-16T07:16:39.453Z,2.60
2023-02-16T07:19:07.954Z,2.70
2023-02-16T07:21:36.172Z,2.80
2023-02-16T07:24:04.494Z,3.10
2023-02-16T07:26:33.356Z,3.50
2023-02-16T07:29:03.086Z,3.70
2023-02-16T07:31:31.625Z,3.80
2023-02-16T07:33:59.866Z,4.00
2023-02-16T07:36:28.128Z,4.20
2023-02-16T07:38:56.212Z,4.20
2023-02-16T07:41:24.595Z,4.10
2023-02-16T07:43:52.860Z,4.00
2023-02-16T07:46:22.428Z,4.00
2023-02-16T07:48:50.917Z,3.80
2023-02-16T07:51:23.085Z,3.60
2023-02-16T07:53:51.343Z,3.50
2023-02-16T07:56:21.580Z,3.50
2023-02-16T07:58:49.709Z,3.40
2023-02-16T08:01:18.547Z,3.40
2023-02-16T08:03:48.225Z,3.30
2023-02-16T08:06:16.850Z,3.30
2023-02-16T08:08:45.657Z,3.30
2023-02-16T08:11:16.266Z,3.30
2023-02-16T08:13:45.484Z,3.30
2023-02-16T08:16:15.609Z,3.40
2023-02-16T08:18:43.926Z,3.40
2023-02-16T08:21:16.039Z,3.50
2023-02-16T08:23:47.708Z,3.60
2023-02-16T08:26:18.302Z,3.60
2023-02-16T08:28:47.349Z,3.60
2023-02-16T08:31:16.882Z,3.60
2023-02-16T08:33:45.436Z,3.60
2023-02-16T08:36:20.456Z,3.60
2023-02-16T08:38:50.282Z,3.70
2023-02-16T08:41:19.106Z,3.80
2023-02-16T08:43:47.458Z,3.90
2023-02-16T08:46:16.948Z,4.00
2023-02-16T08:48:47.429Z,4.10
2023-02-16T08:51:17.498Z,4.20
2023-02-16T08:53:47.738Z,4.30
2023-02-16T08:56:19.863Z,4.40
2023-02-16T08:58:48.328Z,4.50
2023-02-16T09:01:19.770Z,4.60
2023-02-16T09:03:48.487Z,4.70
2023-02-16T09:06:20.356Z,4.80
2023-02-16T09:08:55.383Z,5.00
2023-02-16T09:11:24.566Z,5.10
2023-02-16T09:13:53.238Z,5.20
2023-02-16T09:16:23.934Z,5.30
2023-02-16T09:18:53.431Z,5.40
2023-02-16T09:21:25.443Z,5.50
2023-02-16T09:23:57.678Z,5.60
2023-02-16T09:26:26.988Z,5.80
2023-02-16T09:28:56.880Z,5.90
2023-02-16T09:31:29.113Z,6.10
2023-02-16T09:34:02.060Z,6.20
2023-02-16T09:36:30.292Z,6.30
2023-02-16T09:38:59.981Z,6.50
2023-02-16T09:41:36.704Z,6.50
2023-02-16T09:44:15.181Z,6.60
2023-02-16T09:46:43.863Z,6.70
2023-02-16T09:49:23.800Z,6.80
2023-02-16T09:52:02.479Z,6.90
2023-02-16T09:54:42.348Z,7.10
2023-02-16T09:57:19.434Z,7.20
2023-02-16T09:59:53.287Z,7.40
2023-02-16T10:02:38.220Z,7.50
2023-02-16T10:05:20.271Z,7.70
2023-02-16T10:08:01.900Z,7.70
2023-02-16T10:10:40.118Z,7.80
2023-02-16T10:13:14.500Z,7.90
2023-02-16T10:15:46.015Z,8.10
2023-02-16T10:18:26.793Z,8.30
2023-02-16T10:20:59.788Z,8.50
2023-02-16T10:23:41.846Z,8.60
2023-02-16T10:26:19.405Z,8.70
2023-02-16T10:28:50.300Z,8.70
2023-02-16T10:31:24.582Z,8.80
2023-02-16T10:34:09.653Z,8.80
2023-02-16T10:37:04.954Z,8.80
2023-02-16T10:39:40.724Z,8.90
2023-02-16T10:42:20.180Z,8.90
2023-02-16T10:44:55.464Z,8.90
2023-02-16T10:47:32.706Z,8.90
2023-02-16T10:50:01.078Z,8.90
2023-02-16T10:52:35.508Z,9.00
2023-02-16T10:55:03.888Z,9.30
2023-02-16T10:57:34.503Z,9.40
2023-02-16T11:00:06.553Z,9.50
2023-02-16T11:02:39.351Z,9.60
2023-02-16T11:05:31.120Z,9.50
2023-02-16T11:08:02.004Z,9.60
2023-02-16T11:10:40.240Z,9.60
2023-02-16T11:13:23.504Z,9.50
2023-02-16T11:15:54.865Z,9.70
2023-02-16T11:18:36.600Z,9.70
2023-02-16T11:21:06.529Z,9.80
2023-02-16T11:23:36.677Z,9.90
2023-02-16T11:26:06.709Z,9.80
2023-02-16T11:28:38.807Z,9.70
2023-02-16T11:31:15.034Z,9.70
2023-02-16T11:33:44.326Z,9.70
2023-02-16T11:36:26.216Z,9.70
2023-02-16T11:39:00.525Z,9.90
2023-02-16T11:41:29.814Z,10.00
2023-02-16T11:43:59.711Z,10.10
2023-02-16T11:46:28.653Z,10.20
2023-02-16T11:48:57.104Z,10.20
2023-02-16T11:51:34.964Z,10.20
2023-02-16T11:54:06.139Z,10.20
2023-02-16T11:56:36.244Z,10.30
2023-02-16T11:59:19.210Z,10.20
2023-02-16T12:02:11.532Z,10.40
2023-02-16T12:04:54.062Z,10.50
2023-02-16T12:07:32.385Z,10.60
2023-02-16T12:10:08.407Z,10.80
2023-02-16T12:12:44.551Z,10.80
2023-02-16T12:15:22.447Z,10.80
2023-02-16T12:18:08.320Z,11.00
2023-02-16T12:20:48.990Z,11.00
2023-02-16T12:23:33.341Z,11.00
2023-02-16T12:26:27.243Z,11.00
2023-02-16T12:29:06.797Z,10.90
2023-02-16T12:31:52.046Z,11.10
2023-02-16T12:34:33.229Z,11.20
2023-02-16T12:37:10.221Z,11.20
2023-02-16T12:39:48.666Z,11.20
2023-02-16T12:42:35.087Z,11.30
2023-02-16T12:45:10.924Z,11.40
2023-02-16T12:47:46.718Z,11.40
2023-02-16T12:50:21.263Z,11.50
2023-02-16T12:52:58.266Z,11.50
2023-02-16T12:55:30.031Z,11.50
2023-02-16T12:58:04.318Z,11.40
2023-02-16T13:00:42.823Z,11.40
2023-02-16T13:03:25.150Z,11.30
2023-02-16T13:06:04.246Z,11.20
2023-02-16T13:08:41.085Z,11.20
2023-02-16T13:11:17.570Z,11.20
2023-02-16T13:13:49.076Z,11.30
2023-02-16T13:16:30.151Z,11.30
2023-02-16T13:19:00.472Z,11.40
2023-02-16T13:21:55.372Z,11.60
2023-02-16T13:24:37.738Z,11.70
2023-02-16T13:27:20.862Z,11.70
2023-02-16T13:30:00.408Z,11.70
2023-02-16T13:32:50.828Z,11.70
2023-02-16T13:35:37.947Z,11.70
2023-02-16T13:38:22.075Z,11.80
2023-02-16T13:41:18.325Z,11.90
2023-02-16T13:43:53.951Z,12.00
2023-02-16T13:46:28.726Z,12.00
2023-02-16T13:48:57.404Z,12.10
2023-02-16T13:51:30.983Z,12.10
2023-02-16T13:54:01.589Z,12.10
2023-02-16T13:56:36.244Z,12.10
2023-02-16T13:59:59.353Z,12.20
2023-02-16T14:02:56.924Z,12.10
2023-02-16T14:05:36.842Z,12.10
2023-02-16T14:08:22.960Z,12.00
2023-02-16T14:11:09.549Z,11.90
2023-02-16T14:13:52.102Z,11.80
2023-02-16T14:16:31.570Z,11.80
2023-02-16T14:19:18.355Z,11.70
2023-02-16T14:21:49.047Z,11.70
2023-02-16T14:24:32.680Z,11.80
2023-02-16T14:27:04.389Z,11.80
2023-02-16T14:29:37.823Z,11.80
2023-02-16T14:32:18.288Z,11.90
2023-02-16T14:34:54.089Z,11.90
2023-02-16T14:37:30.243Z,12.00
2023-02-16T14:40:20.745Z,11.90
2023-02-16T14:42:57.266Z,11.90
2023-02-16T14:45:53.786Z,11.80
2023-02-16T14:48:36.264Z,11.80
2023-02-16T14:51:34.761Z,11.80
2023-02-16T14:54:43.797Z,11.80
2023-02-16T14:57:16.615Z,11.70
2023-02-16T14:59:47.464Z,11.70
2023-02-16T15:02:34.117Z,11.70
2023-02-16T15:05:18.836Z,11.70
2023-02-16T15:07:53.010Z,11.60
2023-02-16T15:10:26.906Z,11.60
2023-02-16T15:12:57.511Z,11.60
2023-02-16T15:15:32.617Z,11.60
2023-02-16T15:18:01.832Z,11.60
2023-02-16T15:20:34.152Z,11.70
2023-02-16T15:23:04.472Z,11.70
2023-02-16T15:25:35.365Z,11.70
2023-02-16T15:28:20.309Z,11.70
2023-02-16T15:30:51.071Z,11.70
2023-02-16T15:33:32.482Z,11.70
2023-02-16T15:36:03.003Z,11.60
2023-02-16T15:38:33.840Z,11.60
2023-02-16T15:41:06.849Z,11.50
2023-02-16T15:43:39.923Z,11.50
2023-02-16T15:46:14.860Z,11.40
2023-02-16T15:48:43.358Z,11.40
2023-02-16T15:51:17.316Z,11.30
2023-02-16T15:53:49.802Z,11.20
2023-02-16T15:56:29.556Z,11.20
2023-02-16T15:59:04.895Z,11.10
2023-02-16T16:01:35.350Z,11.10
2023-02-16T16:04:06.169Z,11.00
2023-02-16T16:06:39.556Z,10.90
2023-02-16T16:09:11.849Z,10.90
2023-02-16T16:11:40.322Z,10.80
2023-02-16T16:14:12.582Z,10.70
2023-02-16T16:16:40.948Z,10.70
2023-02-16T16:19:15.430Z,10.60
2023-02-16T16:21:54.264Z,10.60
2023-02-16T16:24:34.164Z,10.50
2023-02-16T16:27:05.979Z,10.50
2023-02-16T16:29:41.581Z,10.50
2023-02-16T16:32:20.510Z,10.50
2023-02-16T16:34:49.635Z,10.50
2023-02-16T16:37:26.404Z,10.40
2023-02-16T16:40:04.829Z,10.30
2023-02-16T16:42:34.625Z,10.20
2023-02-16T16:45:08.628Z,10.20
2023-02-16T16:47:40.558Z,10.20
2023-02-16T16:50:33.491Z,10.20
2023-02-16T16:53:02.580Z,10.20
2023-02-16T16:55:34.052Z,10.10
2023-02-16T16:58:05.649Z,10.00
2023-02-16T17:00:38.286Z,10.00
2023-02-16T17:03:08.374Z,10.00
2023-02-16T17:05:38.334Z,10.00
2023-02-16T17:08:07.278Z,9.90
2023-02-16T17:10:40.362Z,9.80
2023-02-16T17:13:09.076Z,9.80
2023-02-16T17:15:44.904Z,9.70
2023-02-16T17:18:17.094Z,9.70
2023-02-16T17:20:45.643Z,9.70
2023-02-16T17:23:15.413Z,9.70
2023-02-16T17:25:44.031Z,9.70
2023-02-16T17:28:14.517Z,9.80
2023-02-16T17:30:44.716Z,9.80
2023-02-16T17:33:14.516Z,9.80
2023-02-16T17:35:44.447Z,9.80
2023-02-16T17:38:15.106Z,9.80
2023-02-16T17:40:45.335Z,9.80
2023-02-16T17:43:14.764Z,9.80
2023-02-16T17:45:48.970Z,9.80
2023-02-16T17:48:20.400Z,9.80
2023-02-16T17:50:51.234Z,9.80
2023-02-16T17:53:21.499Z,9.80
2023-02-16T17:55:51.678Z,9.70
2023-02-16T17:58:22.797Z,9.70
2023-02-16T18:00:56.084Z,9.60
2023-02-16T18:03:27.174Z,9.60
2023-02-16T18:05:57.031Z,9.60
2023-02-16T18:08:25.284Z,9.60
2023-02-16T18:11:01.735Z,9.60
2023-02-16T18:13:30.789Z,9.60
2023-02-16T18:16:06.943Z,9.60
2023-02-16T18:18:36.826Z,9.50
2023-02-16T18:21:05.363Z,9.50
2023-02-16T18:23:34.115Z,9.50
2023-02-16T18:26:02.561Z,9.40
2023-02-16T18:28:32.840Z,9.40
2023-02-16T18:31:07.134Z,9.50
2023-02-16T18:33:35.805Z,9.40
2023-02-16T18:36:04.619Z,9.40
2023-02-16T18:38:33.523Z,9.40
2023-02-16T18:41:01.810Z,9.40
2023-02-16T18:43:30.077Z,9.40
2023-02-16T18:45:58.762Z,9.30
2023-02-16T18:48:29.467Z,9.40
2023-02-16T18:50:57.680Z,9.30
2023-02-16T18:53:26.089Z,9.30
2023-02-16T18:55:54.502Z,9.30
2023-02-16T18:58:24.887Z,9.20
2023-02-16T19:00:53.260Z,9.20
2023-02-16T19:03:21.588Z,9.20
2023-02-16T19:05:51.535Z,9.40
2023-02-16T19:08:20.096Z,9.30
2023-02-16T19:10:48.488Z,9.20
2023-02-16T19:13:16.848Z,9.20
2023-02-16T19:15:45.045Z,9.10
2023-02-16T19:18:13.430Z,9.20
2023-02-16T19:20:41.849Z,9.20
2023-02-16T19:23:11.897Z,9.20
2023-02-16T19:25:40.508Z,9.20
2023-02-16T19:28:08.902Z,9.10
2023-02-16T19:30:37.292Z,9.40
2023-02-16T19:33:05.570Z,9.50
2023-02-16T19:35:33.751Z,9.40
2023-02-16T19:38:02.636Z,9.30
2023-02-16T19:40:34.282Z,9.20
2023-02-16T19:43:02.566Z,9.10
2023-02-16T19:45:32.807Z,9.00
2023-02-16T19:48:00.895Z,9.00
2023-02-16T19:50:29.333Z,9.00
2023-02-16T19:52:57.637Z,9.00
2023-02-16T19:55:26.365Z,8.90
2023-02-16T19:57:56.294Z,8.90
2023-02-16T20:00:24.643Z,9.00
2023-02-16T20:02:53.666Z,9.00
2023-02-16T20:05:21.991Z,9.00
2023-02-16T20:07:50.206Z,8.90
2023-02-16T20:10:18.482Z,8.90
2023-02-16T20:12:46.626Z,8.90
2023-02-16T20:15:16.401Z,8.90
2023-02-16T20:17:44.768Z,8.90
2023-02-16T20:20:14.076Z,8.90
2023-02-16T20:22:42.242Z,8.90
2023-02-16T20:25:11.201Z,8.90
2023-02-16T20:27:41.482Z,8.90
2023-02-16T20:30:15.806Z,8.90
2023-02-16T20:32:47.057Z,8.90
2023-02-16T20:35:16.107Z,8.90
2023-02-16T20:37:44.391Z,8.90
2023-02-16T20:40:13.494Z,8.90
2023-02-16T20:42:41.813Z,8.90
2023-02-16T20:45:12.319Z,8.80
2023-02-16T20:47:41.086Z,8.90
2023-02-16T20:50:11.697Z,8.80
2023-02-16T20:52:40.177Z,8.80
2023-02-16T20:55:09.674Z,8.80
2023-02-16T20:57:38.893Z,8.70
2023-02-16T21:00:13.200Z,8.80
2023-02-16T21:02:42.227Z,8.70
2023-02-16T21:05:14.876Z,8.70
2023-02-16T21:07:43.043Z,8.70
2023-02-16T21:10:12.855Z,8.60
2023-02-16T21:12:41.015Z,8.60
2023-02-16T21:15:10.693Z,8.60
2023-02-16T21:17:39.080Z,8.60
2023-02-16T21:20:09.424Z,8.50
2023-02-16T21:22:38.917Z,8.50
2023-02-16T21:25:08.916Z,8.50
2023-02-16T21:27:37.162Z,8.50
2023-02-16T21:30:06.890Z,8.50
2023-02-16T21:32:35.139Z,8.50
2023-02-16T21:35:03.554Z,8.50
2023-02-16T21:37:35.624Z,8.50
2023-02-16T21:40:23.162Z,8.50
2023-02-16T21:42:51.833Z,8.50
2023-02-16T21:45:20.377Z,8.40
2023-02-16T21:48:06.353Z,8.40
2023-02-16T21:50:37.257Z,8.40
2023-02-16T21:53:06.944Z,8.40
2023-02-16T21:55:54.946Z,8.30
2023-02-16T21:58:27.004Z,8.30
2023-02-16T22:00:56.454Z,8.30
2023-02-16T22:03:24.743Z,8.20
2023-02-16T22:05:53.134Z,8.20
2023-02-16T22:08:21.241Z,8.20
2023-02-16T22:10:51.185Z,8.20
2023-02-16T22:13:19.257Z,8.20
2023-02-16T22:15:48.853Z,8.10
2023-02-16T22:18:16.930Z,8.10
2023-02-16T22:20:45.141Z,8.10
2023-02-16T22:23:13.319Z,8.10
2023-02-16T22:25:41.565Z,8.10
2023-02-16T22:28:11.383Z,8.10
2023-02-16T22:30:39.629Z,8.10
2023-02-16T22:33:07.806Z,8.10
2023-02-16T22:35:36.028Z,8.10
2023-02-16T22:38:04.195Z,8.10
2023-02-16T22:40:32.552Z,8.10
2023-02-16T22:43:00.763Z,8.00
2023-02-16T22:45:31.140Z,8.00
2023-02-16T22:47:59.518Z,8.00
2023-02-16T22:50:27.845Z,8.00
2023-02-16T22:52:56.223Z,8.00
2023-02-16T22:55:24.431Z,8.00
2023-02-16T22:57:52.936Z,8.00
2023-02-16T23:00:21.183Z,8.00
2023-02-16T23:02:50.753Z,8.00
2023-02-16T23:05:19.100Z,8.00
2023-02-16T23:07:47.373Z,8.00
2023-02-16T23:10:15.988Z,8.00
2023-02-16T23:12:44.235Z,8.00
2023-02-16T23:15:12.411Z,8.00
2023-02-16T23:17:42.799Z,7.90
2023-02-16T23:20:13.188Z,7.90
2023-02-16T23:22:41.375Z,7.90
2023-02-16T23:25:27.090Z,7.90
2023-02-16T23:27:55.933Z,7.90
2023-02-16T23:30:24.186Z,7.90
2023-02-16T23:32:52.880Z,7.90
2023-02-16T23:35:22.746Z,7.90
2023-02-16T23:37:50.949Z,7.90
2023-02-16T23:40:19.365Z,7.90
2023-02-16T23:42:47.625Z,7.90
2023-02-16T23:45:15.879Z,7.90
2023-02-16T23:47:44.059Z,7.90
2023-02-16T23:50:25.526Z,7.90
2023-02-16T23:52:55.029Z,7.90
2023-02-16T23:55:23.425Z,7.90
2023-02-16T23:57:51.630Z,7.90
